sensor_id;sensor_type;location;lat;lon;timestamp;P1;durP1;ratioP1;P2;durP2;ratioP2
43457;SDS011;29046;54.184;18.680;2022-11-27T00:01:51;31.65;;;16.92;;
43457;SDS011;29046;54.184;18.680;2022-11-27T00:04:31;38.67;;;19.13;;
43457;SDS011;29046;54.184;18.680;2022-11-27T00:07:19;42.45;;;18.95;;
43457;SDS011;29046;54.184;18.680;2022-11-27T00:09:53;45.88;;;20.15;;
43457;SDS011;29046;54.184;18.680;2022-11-27T00:12:41;43.35;;;19.20;;
43457;SDS011;29046;54.184;18.680;2022-11-27T00:15:22;72.60;;;29.20;;
43457;SDS011;29046;54.184;18.680;2022-11-27T00:18:10;49.13;;;25.80;;
43457;SDS011;29046;54.184;18.680;2022-11-27T00:20:51;34.05;;;19.58;;
43457;SDS011;29046;54.184;18.680;2022-11-27T00:23:40;41.22;;;17.70;;
43457;SDS011;29046;54.184;18.680;2022-11-27T00:26:14;41.10;;;18.95;;
43457;SDS011;29046;54.184;18.680;2022-11-27T00:28:49;38.67;;;18.25;;
43457;SDS011;29046;54.184;18.680;2022-11-27T00:31:36;40.83;;;19.75;;
43457;SDS011;29046;54.184;18.680;2022-11-27T00:34:11;50.42;;;22.40;;
43457;SDS011;29046;54.184;18.680;2022-11-27T00:36:58;38.45;;;18.92;;
43457;SDS011;29046;54.184;18.680;2022-11-27T00:39:39;28.80;;;13.82;;
43457;SDS011;29046;54.184;18.680;2022-11-27T00:42:19;36.53;;;15.70;;
43457;SDS011;29046;54.184;18.680;2022-11-27T00:45:00;25.95;;;14.23;;
43457;SDS011;29046;54.184;18.680;2022-11-27T00:47:40;32.47;;;14.70;;
43457;SDS011;29046;54.184;18.680;2022-11-27T00:50:21;49.33;;;21.67;;
43457;SDS011;29046;54.184;18.680;2022-11-27T00:53:10;44.88;;;19.75;;
43457;SDS011;29046;54.184;18.680;2022-11-27T00:55:45;40.40;;;17.60;;
43457;SDS011;29046;54.184;18.680;2022-11-27T00:58:32;36.55;;;17.85;;
43457;SDS011;29046;54.184;18.680;2022-11-27T01:01:07;33.33;;;16.15;;
43457;SDS011;29046;54.184;18.680;2022-11-27T01:03:55;36.50;;;16.02;;
43457;SDS011;29046;54.184;18.680;2022-11-27T01:06:36;43.17;;;24.05;;
43457;SDS011;29046;54.184;18.680;2022-11-27T01:09:16;209.25;;;85.72;;
43457;SDS011;29046;54.184;18.680;2022-11-27T01:11:58;133.25;;;56.03;;
43457;SDS011;29046;54.184;18.680;2022-11-27T01:14:38;68.30;;;33.30;;
43457;SDS011;29046;54.184;18.680;2022-11-27T01:17:20;54.00;;;22.85;;
43457;SDS011;29046;54.184;18.680;2022-11-27T01:20:00;50.20;;;21.55;;
43457;SDS011;29046;54.184;18.680;2022-11-27T01:22:42;62.50;;;28.10;;
43457;SDS011;29046;54.184;18.680;2022-11-27T01:25:22;47.63;;;20.23;;
43457;SDS011;29046;54.184;18.680;2022-11-27T01:28:03;50.08;;;21.38;;
43457;SDS011;29046;54.184;18.680;2022-11-27T01:30:43;30.13;;;13.20;;
43457;SDS011;29046;54.184;18.680;2022-11-27T01:33:24;19.90;;;9.88;;
43457;SDS011;29046;54.184;18.680;2022-11-27T01:36:05;25.42;;;11.50;;
43457;SDS011;29046;54.184;18.680;2022-11-27T01:38:47;37.78;;;14.98;;
43457;SDS011;29046;54.184;18.680;2022-11-27T01:41:35;27.40;;;12.02;;
43457;SDS011;29046;54.184;18.680;2022-11-27T01:47:12;20.03;;;8.63;;
43457;SDS011;29046;54.184;18.680;2022-11-27T01:49:55;24.67;;;9.20;;
43457;SDS011;29046;54.184;18.680;2022-11-27T01:52:53;16.90;;;8.07;;
43457;SDS011;29046;54.184;18.680;2022-11-27T01:55:49;13.57;;;6.35;;
43457;SDS011;29046;54.184;18.680;2022-11-27T01:58:25;17.60;;;8.10;;
43457;SDS011;29046;54.184;18.680;2022-11-27T02:01:19;30.50;;;9.60;;
43457;SDS011;29046;54.184;18.680;2022-11-27T02:04:13;17.00;;;7.00;;
43457;SDS011;29046;54.184;18.680;2022-11-27T02:06:48;18.20;;;8.60;;
43457;SDS011;29046;54.184;18.680;2022-11-27T02:09:42;16.33;;;7.65;;
43457;SDS011;29046;54.184;18.680;2022-11-27T02:12:40;20.20;;;8.13;;
43457;SDS011;29046;54.184;18.680;2022-11-27T02:18:35;11.80;;;5.05;;
43457;SDS011;29046;54.184;18.680;2022-11-27T02:21:13;14.55;;;6.20;;
43457;SDS011;29046;54.184;18.680;2022-11-27T02:29:58;19.00;;;6.93;;
43457;SDS011;29046;54.184;18.680;2022-11-27T02:32:58;13.13;;;5.00;;
43457;SDS011;29046;54.184;18.680;2022-11-27T02:38:40;8.02;;;2.42;;
43457;SDS011;29046;54.184;18.680;2022-11-27T02:41:28;9.90;;;3.90;;
43457;SDS011;29046;54.184;18.680;2022-11-27T02:44:24;10.25;;;4.10;;
43457;SDS011;29046;54.184;18.680;2022-11-27T02:47:22;7.82;;;3.38;;
43457;SDS011;29046;54.184;18.680;2022-11-27T02:49:57;7.78;;;3.60;;
43457;SDS011;29046;54.184;18.680;2022-11-27T02:52:53;6.30;;;2.60;;
43457;SDS011;29046;54.184;18.680;2022-11-27T02:55:29;6.23;;;3.00;;
43457;SDS011;29046;54.184;18.680;2022-11-27T02:58:20;6.78;;;3.42;;
43457;SDS011;29046;54.184;18.680;2022-11-27T03:00:54;4.90;;;2.97;;
43457;SDS011;29046;54.184;18.680;2022-11-27T03:03:44;6.85;;;2.50;;
43457;SDS011;29046;54.184;18.680;2022-11-27T03:06:26;2.17;;;1.75;;
43457;SDS011;29046;54.184;18.680;2022-11-27T03:09:26;9.10;;;3.95;;
43457;SDS011;29046;54.184;18.680;2022-11-27T03:12:03;9.10;;;3.53;;
43457;SDS011;29046;54.184;18.680;2022-11-27T03:17:34;4.35;;;2.55;;
43457;SDS011;29046;54.184;18.680;2022-11-27T03:20:26;4.07;;;2.67;;
43457;SDS011;29046;54.184;18.680;2022-11-27T03:23:15;5.85;;;2.28;;
43457;SDS011;29046;54.184;18.680;2022-11-27T03:26:03;5.40;;;2.55;;
43457;SDS011;29046;54.184;18.680;2022-11-27T03:28:45;4.68;;;2.83;;
43457;SDS011;29046;54.184;18.680;2022-11-27T03:31:33;3.90;;;2.50;;
43457;SDS011;29046;54.184;18.680;2022-11-27T03:34:14;4.57;;;2.40;;
43457;SDS011;29046;54.184;18.680;2022-11-27T03:37:02;5.35;;;2.92;;
43457;SDS011;29046;54.184;18.680;2022-11-27T03:39:36;7.03;;;3.08;;
43457;SDS011;29046;54.184;18.680;2022-11-27T03:48:51;4.43;;;2.35;;
43457;SDS011;29046;54.184;18.680;2022-11-27T03:52:07;5.95;;;2.65;;
43457;SDS011;29046;54.184;18.680;2022-11-27T03:55:14;7.28;;;2.80;;
43457;SDS011;29046;54.184;18.680;2022-11-27T04:00:42;6.47;;;3.17;;
43457;SDS011;29046;54.184;18.680;2022-11-27T04:03:21;6.55;;;3.20;;
43457;SDS011;29046;54.184;18.680;2022-11-27T04:06:09;5.13;;;2.85;;
43457;SDS011;29046;54.184;18.680;2022-11-27T04:08:47;5.35;;;2.53;;
43457;SDS011;29046;54.184;18.680;2022-11-27T04:11:34;6.88;;;3.15;;
43457;SDS011;29046;54.184;18.680;2022-11-27T04:14:09;5.82;;;3.15;;
43457;SDS011;29046;54.184;18.680;2022-11-27T04:17:03;6.55;;;3.25;;
43457;SDS011;29046;54.184;18.680;2022-11-27T04:19:57;6.45;;;3.13;;
43457;SDS011;29046;54.184;18.680;2022-11-27T04:22:32;9.77;;;3.30;;
43457;SDS011;29046;54.184;18.680;2022-11-27T04:25:19;5.85;;;3.42;;
43457;SDS011;29046;54.184;18.680;2022-11-27T04:27:54;10.68;;;3.75;;
43457;SDS011;29046;54.184;18.680;2022-11-27T04:30:41;7.25;;;4.40;;
43457;SDS011;29046;54.184;18.680;2022-11-27T04:33:16;8.25;;;4.38;;
43457;SDS011;29046;54.184;18.680;2022-11-27T04:36:03;11.35;;;5.40;;
43457;SDS011;29046;54.184;18.680;2022-11-27T04:38:38;9.95;;;5.13;;
43457;SDS011;29046;54.184;18.680;2022-11-27T04:41:32;10.82;;;6.40;;
43457;SDS011;29046;54.184;18.680;2022-11-27T04:44:26;11.88;;;6.22;;
43457;SDS011;29046;54.184;18.680;2022-11-27T04:47:00;11.73;;;5.97;;
43457;SDS011;29046;54.184;18.680;2022-11-27T04:49:47;10.38;;;5.50;;
43457;SDS011;29046;54.184;18.680;2022-11-27T04:52:22;11.77;;;5.65;;
43457;SDS011;29046;54.184;18.680;2022-11-27T04:55:09;15.73;;;6.82;;
43457;SDS011;29046;54.184;18.680;2022-11-27T04:57:44;14.00;;;7.75;;
43457;SDS011;29046;54.184;18.680;2022-11-27T05:00:31;16.95;;;7.63;;
43457;SDS011;29046;54.184;18.680;2022-11-27T05:03:11;15.13;;;7.13;;
43457;SDS011;29046;54.184;18.680;2022-11-27T05:05:59;16.08;;;7.20;;
43457;SDS011;29046;54.184;18.680;2022-11-27T05:08:33;15.07;;;6.85;;
43457;SDS011;29046;54.184;18.680;2022-11-27T05:11:21;12.27;;;6.10;;
43457;SDS011;29046;54.184;18.680;2022-11-27T05:13:56;13.05;;;6.85;;
43457;SDS011;29046;54.184;18.680;2022-11-27T05:16:57;14.65;;;7.18;;
43457;SDS011;29046;54.184;18.680;2022-11-27T05:19:51;15.90;;;7.07;;
43457;SDS011;29046;54.184;18.680;2022-11-27T05:22:25;12.95;;;7.35;;
43457;SDS011;29046;54.184;18.680;2022-11-27T05:25:12;11.77;;;6.28;;
43457;SDS011;29046;54.184;18.680;2022-11-27T05:27:46;14.73;;;7.18;;
43457;SDS011;29046;54.184;18.680;2022-11-27T05:30:33;17.70;;;9.85;;
43457;SDS011;29046;54.184;18.680;2022-11-27T05:33:07;18.67;;;9.32;;
43457;SDS011;29046;54.184;18.680;2022-11-27T05:35:54;18.20;;;7.18;;
43457;SDS011;29046;54.184;18.680;2022-11-27T05:38:29;12.63;;;6.15;;
43457;SDS011;29046;54.184;18.680;2022-11-27T05:41:16;15.98;;;6.65;;
43457;SDS011;29046;54.184;18.680;2022-11-27T05:43:50;14.35;;;7.65;;
43457;SDS011;29046;54.184;18.680;2022-11-27T05:46:37;16.45;;;8.73;;
43457;SDS011;29046;54.184;18.680;2022-11-27T05:49:13;19.02;;;9.25;;
43457;SDS011;29046;54.184;18.680;2022-11-27T05:52:07;16.77;;;8.40;;
43457;SDS011;29046;54.184;18.680;2022-11-27T05:55:01;13.63;;;8.13;;
43457;SDS011;29046;54.184;18.680;2022-11-27T05:57:36;17.33;;;9.32;;
43457;SDS011;29046;54.184;18.680;2022-11-27T06:00:30;13.23;;;7.68;;
43457;SDS011;29046;54.184;18.680;2022-11-27T06:03:24;15.30;;;8.02;;
43457;SDS011;29046;54.184;18.680;2022-11-27T06:06:06;14.10;;;8.07;;
43457;SDS011;29046;54.184;18.680;2022-11-27T06:09:01;17.90;;;9.15;;
43457;SDS011;29046;54.184;18.680;2022-11-27T06:11:55;15.32;;;7.93;;
43457;SDS011;29046;54.184;18.680;2022-11-27T06:14:36;28.70;;;11.50;;
43457;SDS011;29046;54.184;18.680;2022-11-27T06:17:17;23.35;;;9.05;;
43457;SDS011;29046;54.184;18.680;2022-11-27T06:19:57;18.65;;;8.23;;
43457;SDS011;29046;54.184;18.680;2022-11-27T06:22:45;17.92;;;8.52;;
43457;SDS011;29046;54.184;18.680;2022-11-27T06:25:27;19.92;;;8.98;;
43457;SDS011;29046;54.184;18.680;2022-11-27T06:28:07;19.70;;;10.20;;
43457;SDS011;29046;54.184;18.680;2022-11-27T06:30:47;24.45;;;11.98;;
43457;SDS011;29046;54.184;18.680;2022-11-27T06:33:28;21.10;;;11.60;;
43457;SDS011;29046;54.184;18.680;2022-11-27T06:36:09;23.75;;;10.52;;
43457;SDS011;29046;54.184;18.680;2022-11-27T06:38:51;17.25;;;10.80;;
43457;SDS011;29046;54.184;18.680;2022-11-27T06:41:31;21.75;;;11.00;;
43457;SDS011;29046;54.184;18.680;2022-11-27T06:44:20;23.50;;;13.00;;
43457;SDS011;29046;54.184;18.680;2022-11-27T06:46:54;17.90;;;9.27;;
43457;SDS011;29046;54.184;18.680;2022-11-27T06:49:43;23.95;;;11.30;;
43457;SDS011;29046;54.184;18.680;2022-11-27T06:52:23;17.98;;;9.60;;
43457;SDS011;29046;54.184;18.680;2022-11-27T06:55:12;19.80;;;8.65;;
43457;SDS011;29046;54.184;18.680;2022-11-27T06:57:53;23.10;;;12.40;;
43457;SDS011;29046;54.184;18.680;2022-11-27T07:00:41;28.92;;;13.00;;
43457;SDS011;29046;54.184;18.680;2022-11-27T07:03:22;24.50;;;10.15;;
43457;SDS011;29046;54.184;18.680;2022-11-27T07:06:04;16.33;;;8.75;;
43457;SDS011;29046;54.184;18.680;2022-11-27T07:08:45;17.77;;;9.27;;
43457;SDS011;29046;54.184;18.680;2022-11-27T07:11:32;16.75;;;8.95;;
43457;SDS011;29046;54.184;18.680;2022-11-27T07:14:07;16.67;;;9.15;;
43457;SDS011;29046;54.184;18.680;2022-11-27T07:16:54;20.90;;;9.95;;
43457;SDS011;29046;54.184;18.680;2022-11-27T07:19:28;23.27;;;10.63;;
43457;SDS011;29046;54.184;18.680;2022-11-27T07:22:15;22.00;;;9.98;;
43457;SDS011;29046;54.184;18.680;2022-11-27T07:24:49;26.92;;;11.48;;
43457;SDS011;29046;54.184;18.680;2022-11-27T07:27:36;21.83;;;11.60;;
43457;SDS011;29046;54.184;18.680;2022-11-27T07:30:17;21.33;;;10.65;;
43457;SDS011;29046;54.184;18.680;2022-11-27T07:33:11;15.52;;;8.82;;
43457;SDS011;29046;54.184;18.680;2022-11-27T07:35:45;16.42;;;8.40;;
43457;SDS011;29046;54.184;18.680;2022-11-27T07:38:32;18.17;;;8.70;;
43457;SDS011;29046;54.184;18.680;2022-11-27T07:41:07;19.80;;;9.63;;
43457;SDS011;29046;54.184;18.680;2022-11-27T07:44:01;20.80;;;8.63;;
43457;SDS011;29046;54.184;18.680;2022-11-27T07:46:36;21.85;;;9.10;;
43457;SDS011;29046;54.184;18.680;2022-11-27T07:49:30;24.52;;;11.75;;
43457;SDS011;29046;54.184;18.680;2022-11-27T07:52:04;22.42;;;12.43;;
43457;SDS011;29046;54.184;18.680;2022-11-27T07:54:51;20.92;;;11.32;;
43457;SDS011;29046;54.184;18.680;2022-11-27T07:57:25;23.10;;;9.07;;
43457;SDS011;29046;54.184;18.680;2022-11-27T08:00:19;14.02;;;7.20;;
43457;SDS011;29046;54.184;18.680;2022-11-27T08:03:13;12.75;;;6.50;;
43457;SDS011;29046;54.184;18.680;2022-11-27T08:05:48;13.57;;;5.65;;
43457;SDS011;29046;54.184;18.680;2022-11-27T08:08:36;15.90;;;6.57;;
43457;SDS011;29046;54.184;18.680;2022-11-27T08:11:17;21.58;;;9.57;;
43457;SDS011;29046;54.184;18.680;2022-11-27T08:14:06;18.33;;;7.93;;
43457;SDS011;29046;54.184;18.680;2022-11-27T08:16:40;22.80;;;11.82;;
43457;SDS011;29046;54.184;18.680;2022-11-27T08:19:34;28.40;;;15.13;;
43457;SDS011;29046;54.184;18.680;2022-11-27T08:22:28;22.77;;;10.90;;
43457;SDS011;29046;54.184;18.680;2022-11-27T08:25:02;19.77;;;7.93;;
43457;SDS011;29046;54.184;18.680;2022-11-27T08:27:56;23.23;;;11.77;;
43457;SDS011;29046;54.184;18.680;2022-11-27T08:30:54;20.23;;;10.07;;
43457;SDS011;29046;54.184;18.680;2022-11-27T08:33:30;28.05;;;12.85;;
43457;SDS011;29046;54.184;18.680;2022-11-27T08:36:17;30.88;;;15.48;;
43457;SDS011;29046;54.184;18.680;2022-11-27T08:38:58;27.65;;;15.05;;
43457;SDS011;29046;54.184;18.680;2022-11-27T08:41:45;33.00;;;14.02;;
43457;SDS011;29046;54.184;18.680;2022-11-27T08:44:19;18.63;;;10.25;;
43457;SDS011;29046;54.184;18.680;2022-11-27T08:47:06;20.85;;;8.35;;
43457;SDS011;29046;54.184;18.680;2022-11-27T08:49:41;18.45;;;9.75;;
43457;SDS011;29046;54.184;18.680;2022-11-27T08:52:30;16.27;;;6.32;;
43457;SDS011;29046;54.184;18.680;2022-11-27T08:55:04;21.83;;;10.27;;
43457;SDS011;29046;54.184;18.680;2022-11-27T08:57:58;17.20;;;7.75;;
43457;SDS011;29046;54.184;18.680;2022-11-27T09:00:52;24.73;;;10.15;;
43457;SDS011;29046;54.184;18.680;2022-11-27T09:03:27;24.40;;;11.10;;
43457;SDS011;29046;54.184;18.680;2022-11-27T09:06:16;22.13;;;11.80;;
43457;SDS011;29046;54.184;18.680;2022-11-27T09:08:51;58.13;;;32.05;;
43457;SDS011;29046;54.184;18.680;2022-11-27T09:11:45;32.42;;;17.05;;
43457;SDS011;29046;54.184;18.680;2022-11-27T09:14:39;13.43;;;6.57;;
43457;SDS011;29046;54.184;18.680;2022-11-27T09:17:13;23.88;;;10.70;;
43457;SDS011;29046;54.184;18.680;2022-11-27T09:20:00;17.75;;;9.02;;
43457;SDS011;29046;54.184;18.680;2022-11-27T09:22:34;23.05;;;12.20;;
43457;SDS011;29046;54.184;18.680;2022-11-27T09:25:21;23.75;;;11.63;;
43457;SDS011;29046;54.184;18.680;2022-11-27T09:27:55;22.38;;;10.32;;
43457;SDS011;29046;54.184;18.680;2022-11-27T09:30:42;27.30;;;13.32;;
43457;SDS011;29046;54.184;18.680;2022-11-27T09:33:17;23.08;;;10.48;;
43457;SDS011;29046;54.184;18.680;2022-11-27T09:36:16;22.88;;;9.68;;
43457;SDS011;29046;54.184;18.680;2022-11-27T09:39:10;20.95;;;11.00;;
43457;SDS011;29046;54.184;18.680;2022-11-27T09:41:50;21.45;;;12.02;;
43457;SDS011;29046;54.184;18.680;2022-11-27T09:44:42;18.45;;;9.18;;
43457;SDS011;29046;54.184;18.680;2022-11-27T09:50:34;22.38;;;9.65;;
43457;SDS011;29046;54.184;18.680;2022-11-27T09:53:12;23.98;;;10.20;;
43457;SDS011;29046;54.184;18.680;2022-11-27T09:56:07;26.00;;;11.95;;
43457;SDS011;29046;54.184;18.680;2022-11-27T09:58:46;27.60;;;10.43;;
43457;SDS011;29046;54.184;18.680;2022-11-27T10:01:40;35.20;;;14.35;;
43457;SDS011;29046;54.184;18.680;2022-11-27T10:04:17;13.38;;;7.35;;
43457;SDS011;29046;54.184;18.680;2022-11-27T10:07:27;28.85;;;14.68;;
43457;SDS011;29046;54.184;18.680;2022-11-27T10:13:32;27.63;;;11.88;;
43457;SDS011;29046;54.184;18.680;2022-11-27T10:16:08;17.08;;;9.10;;
43457;SDS011;29046;54.184;18.680;2022-11-27T10:21:54;21.80;;;11.82;;
43457;SDS011;29046;54.184;18.680;2022-11-27T10:25:02;26.80;;;10.95;;
43457;SDS011;29046;54.184;18.680;2022-11-27T10:33:51;21.38;;;9.77;;
43457;SDS011;29046;54.184;18.680;2022-11-27T10:36:42;18.38;;;10.13;;
43457;SDS011;29046;54.184;18.680;2022-11-27T10:39:45;20.13;;;9.00;;
43457;SDS011;29046;54.184;18.680;2022-11-27T10:42:50;16.90;;;9.52;;
43457;SDS011;29046;54.184;18.680;2022-11-27T10:46:00;19.50;;;9.15;;
43457;SDS011;29046;54.184;18.680;2022-11-27T10:48:54;17.08;;;9.27;;
43457;SDS011;29046;54.184;18.680;2022-11-27T10:51:35;23.60;;;12.27;;
43457;SDS011;29046;54.184;18.680;2022-11-27T10:54:25;21.90;;;9.18;;
43457;SDS011;29046;54.184;18.680;2022-11-27T11:00:20;14.20;;;8.43;;
43457;SDS011;29046;54.184;18.680;2022-11-27T11:02:58;20.98;;;11.25;;
43457;SDS011;29046;54.184;18.680;2022-11-27T11:05:55;19.90;;;9.07;;
43457;SDS011;29046;54.184;18.680;2022-11-27T11:09:05;20.95;;;11.32;;
43457;SDS011;29046;54.184;18.680;2022-11-27T11:11:39;21.60;;;11.02;;
43457;SDS011;29046;54.184;18.680;2022-11-27T11:14:26;28.40;;;14.38;;
43457;SDS011;29046;54.184;18.680;2022-11-27T11:17:14;17.40;;;10.52;;
43457;SDS011;29046;54.184;18.680;2022-11-27T11:19:49;24.80;;;10.88;;
43457;SDS011;29046;54.184;18.680;2022-11-27T11:22:42;24.20;;;11.35;;
43457;SDS011;29046;54.184;18.680;2022-11-27T11:25:18;32.70;;;12.98;;
43457;SDS011;29046;54.184;18.680;2022-11-27T11:28:17;20.13;;;9.77;;
43457;SDS011;29046;54.184;18.680;2022-11-27T11:31:18;19.80;;;9.07;;
43457;SDS011;29046;54.184;18.680;2022-11-27T11:33:57;29.23;;;14.73;;
43457;SDS011;29046;54.184;18.680;2022-11-27T11:39:40;23.90;;;11.27;;
43457;SDS011;29046;54.184;18.680;2022-11-27T11:42:35;22.25;;;12.23;;
43457;SDS011;29046;54.184;18.680;2022-11-27T11:45:31;21.20;;;11.50;;
43457;SDS011;29046;54.184;18.680;2022-11-27T11:48:25;23.00;;;12.10;;
43457;SDS011;29046;54.184;18.680;2022-11-27T11:51:15;30.73;;;13.82;;
43457;SDS011;29046;54.184;18.680;2022-11-27T11:54:17;23.10;;;13.40;;
43457;SDS011;29046;54.184;18.680;2022-11-27T11:57:14;22.95;;;12.23;;
43457;SDS011;29046;54.184;18.680;2022-11-27T11:59:50;28.70;;;13.57;;
43457;SDS011;29046;54.184;18.680;2022-11-27T12:05:36;30.13;;;14.82;;
43457;SDS011;29046;54.184;18.680;2022-11-27T12:08:59;26.45;;;13.45;;
43457;SDS011;29046;54.184;18.680;2022-11-27T12:22:33;32.53;;;16.92;;
43457;SDS011;29046;54.184;18.680;2022-11-27T12:25:30;48.35;;;24.23;;
43457;SDS011;29046;54.184;18.680;2022-11-27T12:28:35;24.60;;;13.55;;
43457;SDS011;29046;54.184;18.680;2022-11-27T12:45:36;18.70;;;11.43;;
43457;SDS011;29046;54.184;18.680;2022-11-27T12:48:42;17.70;;;10.02;;
43457;SDS011;29046;54.184;18.680;2022-11-27T12:51:47;18.05;;;10.93;;
43457;SDS011;29046;54.184;18.680;2022-11-27T12:54:47;17.02;;;11.07;;
43457;SDS011;29046;54.184;18.680;2022-11-27T12:57:29;17.88;;;11.25;;
43457;SDS011;29046;54.184;18.680;2022-11-27T13:00:25;19.10;;;12.18;;
43457;SDS011;29046;54.184;18.680;2022-11-27T13:05:57;19.67;;;11.93;;
43457;SDS011;29046;54.184;18.680;2022-11-27T13:11:37;27.63;;;14.65;;
43457;SDS011;29046;54.184;18.680;2022-11-27T13:14:16;19.63;;;11.35;;
43457;SDS011;29046;54.184;18.680;2022-11-27T13:17:12;18.48;;;10.57;;
43457;SDS011;29046;54.184;18.680;2022-11-27T13:20:14;16.92;;;9.85;;
43457;SDS011;29046;54.184;18.680;2022-11-27T13:22:51;24.60;;;12.20;;
43457;SDS011;29046;54.184;18.680;2022-11-27T13:25:47;25.35;;;12.40;;
43457;SDS011;29046;54.184;18.680;2022-11-27T13:28:38;29.60;;;14.13;;
43457;SDS011;29046;54.184;18.680;2022-11-27T13:31:35;25.05;;;13.02;;
43457;SDS011;29046;54.184;18.680;2022-11-27T13:37:05;29.58;;;13.45;;
43457;SDS011;29046;54.184;18.680;2022-11-27T13:40:06;24.75;;;13.35;;
43457;SDS011;29046;54.184;18.680;2022-11-27T13:42:47;30.20;;;17.25;;
43457;SDS011;29046;54.184;18.680;2022-11-27T13:45:42;36.25;;;19.52;;
43457;SDS011;29046;54.184;18.680;2022-11-27T13:48:33;51.53;;;25.95;;
43457;SDS011;29046;54.184;18.680;2022-11-27T13:51:28;55.08;;;27.00;;
43457;SDS011;29046;54.184;18.680;2022-11-27T13:54:05;43.63;;;21.63;;
43457;SDS011;29046;54.184;18.680;2022-11-27T13:56:54;74.57;;;36.28;;
43457;SDS011;29046;54.184;18.680;2022-11-27T13:59:28;142.35;;;60.85;;
43457;SDS011;29046;54.184;18.680;2022-11-27T14:02:18;133.25;;;53.58;;
43457;SDS011;29046;54.184;18.680;2022-11-27T14:04:52;73.10;;;32.80;;
43457;SDS011;29046;54.184;18.680;2022-11-27T14:07:40;41.95;;;21.75;;
43457;SDS011;29046;54.184;18.680;2022-11-27T14:10:23;48.83;;;23.23;;
43457;SDS011;29046;54.184;18.680;2022-11-27T14:13:18;44.78;;;19.70;;
43457;SDS011;29046;54.184;18.680;2022-11-27T14:16:24;43.97;;;22.05;;
43457;SDS011;29046;54.184;18.680;2022-11-27T14:19:00;53.05;;;24.52;;
43457;SDS011;29046;54.184;18.680;2022-11-27T14:21:49;44.22;;;24.42;;
43457;SDS011;29046;54.184;18.680;2022-11-27T14:24:36;39.92;;;19.08;;
43457;SDS011;29046;54.184;18.680;2022-11-27T14:27:27;37.60;;;17.83;;
43457;SDS011;29046;54.184;18.680;2022-11-27T14:36:29;44.70;;;20.38;;
43457;SDS011;29046;54.184;18.680;2022-11-27T14:39:35;40.10;;;18.90;;
43457;SDS011;29046;54.184;18.680;2022-11-27T14:45:05;33.58;;;17.10;;
43457;SDS011;29046;54.184;18.680;2022-11-27T14:47:49;29.58;;;15.18;;
43457;SDS011;29046;54.184;18.680;2022-11-27T14:50:29;29.17;;;14.15;;
43457;SDS011;29046;54.184;18.680;2022-11-27T14:53:10;30.35;;;16.52;;
43457;SDS011;29046;54.184;18.680;2022-11-27T14:55:52;35.17;;;17.20;;
43457;SDS011;29046;54.184;18.680;2022-11-27T14:58:35;33.05;;;16.70;;
43457;SDS011;29046;54.184;18.680;2022-11-27T15:01:25;28.70;;;14.88;;
43457;SDS011;29046;54.184;18.680;2022-11-27T15:07:15;34.53;;;17.25;;
43457;SDS011;29046;54.184;18.680;2022-11-27T15:09:57;29.35;;;16.13;;
43457;SDS011;29046;54.184;18.680;2022-11-27T15:12:41;35.28;;;16.75;;
43457;SDS011;29046;54.184;18.680;2022-11-27T15:15:26;28.63;;;15.27;;
43457;SDS011;29046;54.184;18.680;2022-11-27T15:18:17;30.40;;;15.27;;
43457;SDS011;29046;54.184;18.680;2022-11-27T15:20:53;35.08;;;17.38;;
43457;SDS011;29046;54.184;18.680;2022-11-27T15:23:45;40.63;;;20.83;;
43457;SDS011;29046;54.184;18.680;2022-11-27T15:26:35;30.38;;;16.55;;
43457;SDS011;29046;54.184;18.680;2022-11-27T15:32:01;42.58;;;21.85;;
43457;SDS011;29046;54.184;18.680;2022-11-27T15:34:50;38.33;;;19.55;;
43457;SDS011;29046;54.184;18.680;2022-11-27T15:37:28;36.47;;;16.90;;
43457;SDS011;29046;54.184;18.680;2022-11-27T15:40:32;30.70;;;15.70;;
43457;SDS011;29046;54.184;18.680;2022-11-27T15:43:12;38.20;;;18.00;;
43457;SDS011;29046;54.184;18.680;2022-11-27T15:46:09;37.15;;;17.83;;
43457;SDS011;29046;54.184;18.680;2022-11-27T15:51:37;33.25;;;18.33;;
43457;SDS011;29046;54.184;18.680;2022-11-27T15:54:11;38.50;;;19.40;;
43457;SDS011;29046;54.184;18.680;2022-11-27T15:57:05;44.70;;;19.77;;
43457;SDS011;29046;54.184;18.680;2022-11-27T15:59:59;55.78;;;23.65;;
43457;SDS011;29046;54.184;18.680;2022-11-27T16:02:34;53.63;;;25.30;;
43457;SDS011;29046;54.184;18.680;2022-11-27T16:05:22;48.35;;;23.63;;
43457;SDS011;29046;54.184;18.680;2022-11-27T16:08:16;54.67;;;23.73;;
43457;SDS011;29046;54.184;18.680;2022-11-27T16:10:51;46.90;;;23.27;;
43457;SDS011;29046;54.184;18.680;2022-11-27T16:13:38;37.53;;;20.60;;
43457;SDS011;29046;54.184;18.680;2022-11-27T16:16:20;43.72;;;20.30;;
43457;SDS011;29046;54.184;18.680;2022-11-27T16:19:04;34.25;;;17.05;;
43457;SDS011;29046;54.184;18.680;2022-11-27T16:21:45;37.30;;;19.90;;
43457;SDS011;29046;54.184;18.680;2022-11-27T16:24:26;41.88;;;20.25;;
43457;SDS011;29046;54.184;18.680;2022-11-27T16:27:08;42.55;;;22.60;;
43457;SDS011;29046;54.184;18.680;2022-11-27T16:29:55;45.15;;;22.48;;
43457;SDS011;29046;54.184;18.680;2022-11-27T16:32:29;43.40;;;21.88;;
43457;SDS011;29046;54.184;18.680;2022-11-27T16:35:16;44.78;;;21.98;;
43457;SDS011;29046;54.184;18.680;2022-11-27T16:37:50;41.75;;;21.42;;
43457;SDS011;29046;54.184;18.680;2022-11-27T16:40:37;43.47;;;21.85;;
43457;SDS011;29046;54.184;18.680;2022-11-27T16:43:13;71.50;;;31.50;;
43457;SDS011;29046;54.184;18.680;2022-11-27T16:46:14;49.25;;;25.50;;
43457;SDS011;29046;54.184;18.680;2022-11-27T16:48:49;44.20;;;23.95;;
43457;SDS011;29046;54.184;18.680;2022-11-27T16:51:43;55.65;;;26.25;;
43457;SDS011;29046;54.184;18.680;2022-11-27T16:54:37;47.42;;;23.40;;
43457;SDS011;29046;54.184;18.680;2022-11-27T16:57:12;44.75;;;22.95;;
43457;SDS011;29046;54.184;18.680;2022-11-27T16:59:59;47.60;;;24.67;;
43457;SDS011;29046;54.184;18.680;2022-11-27T17:02:33;48.00;;;23.65;;
43457;SDS011;29046;54.184;18.680;2022-11-27T17:05:20;51.30;;;26.75;;
43457;SDS011;29046;54.184;18.680;2022-11-27T17:07:55;47.53;;;25.73;;
43457;SDS011;29046;54.184;18.680;2022-11-27T17:10:42;48.75;;;25.80;;
43457;SDS011;29046;54.184;18.680;2022-11-27T17:13:17;55.50;;;27.38;;
43457;SDS011;29046;54.184;18.680;2022-11-27T17:16:11;57.50;;;28.00;;
43457;SDS011;29046;54.184;18.680;2022-11-27T17:18:45;66.60;;;32.50;;
43457;SDS011;29046;54.184;18.680;2022-11-27T17:21:33;73.43;;;31.65;;
43457;SDS011;29046;54.184;18.680;2022-11-27T17:24:14;63.83;;;30.13;;
43457;SDS011;29046;54.184;18.680;2022-11-27T17:27:03;61.50;;;30.27;;
43457;SDS011;29046;54.184;18.680;2022-11-27T17:29:38;58.63;;;28.73;;
43457;SDS011;29046;54.184;18.680;2022-11-27T17:32:32;58.00;;;26.70;;
43457;SDS011;29046;54.184;18.680;2022-11-27T17:35:07;50.42;;;25.02;;
43457;SDS011;29046;54.184;18.680;2022-11-27T17:37:54;48.83;;;25.88;;
43457;SDS011;29046;54.184;18.680;2022-11-27T17:40:28;52.90;;;26.52;;
43457;SDS011;29046;54.184;18.680;2022-11-27T17:43:22;52.88;;;29.23;;
43457;SDS011;29046;54.184;18.680;2022-11-27T17:46:18;61.40;;;31.15;;